sensor_id;sensor_type;location;lat;lon;timestamp;pressure;altitude;pressure_sealevel;temperature;humidity
54194;BME280;40102;50.906;6.972;2023-02-18T00:01:52;101703.59;;;11.15;86.88
54194;BME280;40102;50.906;6.972;2023-02-18T00:04:17;101705.47;;;11.13;86.79
54194;BME280;40102;50.906;6.972;2023-02-18T00:06:42;101709.97;;;11.13;87.02
54194;BME280;40102;50.906;6.972;2023-02-18T00:09:09;101708.97;;;11.15;87.05
54194;BME280;40102;50.906;6.972;2023-02-18T00:11:36;101691.16;;;11.14;87.04
54194;BME280;40102;50.906;6.972;2023-02-18T00:14:04;101693.91;;;11.13;86.94
54194;BME280;40102;50.906;6.972;2023-02-18T00:16:30;101700.00;;;11.16;86.93
54194;BME280;40102;50.906;6.972;2023-02-18T00:19:04;101697.38;;;11.15;87.22
54194;BME280;40102;50.906;6.972;2023-02-18T00:21:32;101700.81;;;11.18;87.12
54194;BME280;40102;50.906;6.972;2023-02-18T00:23:58;101690.47;;;11.09;87.22
54194;BME280;40102;50.906;6.972;2023-02-18T00:26:25;101690.63;;;11.06;87.59
54194;BME280;40102;50.906;6.972;2023-02-18T00:28:51;101688.88;;;11.05;87.71
54194;BME280;40102;50.906;6.972;2023-02-18T00:31:21;101691.22;;;11.13;87.43
54194;BME280;40102;50.906;6.972;2023-02-18T00:33:46;101688.63;;;11.11;87.24
54194;BME280;40102;50.906;6.972;2023-02-18T00:36:15;101704.28;;;11.20;87.08
54194;BME280;40102;50.906;6.972;2023-02-18T00:38:48;101689.22;;;11.18;87.13
54194;BME280;40102;50.906;6.972;2023-02-18T00:41:14;101673.69;;;11.06;87.61
54194;BME280;40102;50.906;6.972;2023-02-18T00:43:40;101667.53;;;11.03;87.75
54194;BME280;40102;50.906;6.972;2023-02-18T00:46:05;101664.66;;;11.08;87.63
54194;BME280;40102;50.906;6.972;2023-02-18T00:48:32;101669.88;;;11.11;87.89
54194;BME280;40102;50.906;6.972;2023-02-18T00:50:57;101666.38;;;11.09;87.70
54194;BME280;40102;50.906;6.972;2023-02-18T00:53:25;101675.91;;;11.16;87.66
54194;BME280;40102;50.906;6.972;2023-02-18T00:55:50;101654.19;;;11.02;88.00
54194;BME280;40102;50.906;6.972;2023-02-18T00:58:15;101670.06;;;11.07;87.84
54194;BME280;40102;50.906;6.972;2023-02-18T01:00:41;101673.53;;;11.09;87.69
54194;BME280;40102;50.906;6.972;2023-02-18T01:03:07;101648.97;;;10.99;88.31
54194;BME280;40102;50.906;6.972;2023-02-18T01:05:32;101645.38;;;11.00;87.69
54194;BME280;40102;50.906;6.972;2023-02-18T01:07:58;101661.16;;;11.06;87.91
54194;BME280;40102;50.906;6.972;2023-02-18T01:10:24;101651.44;;;11.03;87.87
54194;BME280;40102;50.906;6.972;2023-02-18T01:12:50;101649.44;;;11.09;87.89
54194;BME280;40102;50.906;6.972;2023-02-18T01:15:16;101647.78;;;11.06;87.97
54194;BME280;40102;50.906;6.972;2023-02-18T01:17:41;101649.78;;;11.01;88.48
54194;BME280;40102;50.906;6.972;2023-02-18T01:20:08;101648.16;;;10.97;88.39
54194;BME280;40102;50.906;6.972;2023-02-18T01:22:35;101642.94;;;10.94;88.95
54194;BME280;40102;50.906;6.972;2023-02-18T01:25:01;101646.44;;;10.96;88.64
54194;BME280;40102;50.906;6.972;2023-02-18T01:27:26;101662.41;;;10.97;88.29
54194;BME280;40102;50.906;6.972;2023-02-18T01:29:51;101648.16;;;10.97;88.84
54194;BME280;40102;50.906;6.972;2023-02-18T01:32:17;101642.00;;;10.95;89.08
54194;BME280;40102;50.906;6.972;2023-02-18T01:34:42;101638.66;;;10.90;88.99
54194;BME280;40102;50.906;6.972;2023-02-18T01:37:07;101644.69;;;10.95;89.38
54194;BME280;40102;50.906;6.972;2023-02-18T01:39:33;101627.03;;;10.91;88.89
54194;BME280;40102;50.906;6.972;2023-02-18T01:41:58;101619.13;;;10.88;89.25
54194;BME280;40102;50.906;6.972;2023-02-18T01:44:26;101644.44;;;11.01;89.57
54194;BME280;40102;50.906;6.972;2023-02-18T01:46:52;101634.72;;;10.98;89.38
54194;BME280;40102;50.906;6.972;2023-02-18T01:49:21;101636.03;;;10.88;89.86
54194;BME280;40102;50.906;6.972;2023-02-18T01:51:52;101639.41;;;10.93;89.96
54194;BME280;40102;50.906;6.972;2023-02-18T01:54:23;101628.09;;;10.87;89.82
54194;BME280;40102;50.906;6.972;2023-02-18T01:57:03;101625.16;;;10.93;89.51
54194;BME280;40102;50.906;6.972;2023-02-18T01:59:33;101612.69;;;10.92;89.66
54194;BME280;40102;50.906;6.972;2023-02-18T02:02:01;101613.69;;;10.89;90.14
54194;BME280;40102;50.906;6.972;2023-02-18T02:04:27;101610.22;;;10.87;90.24
54194;BME280;40102;50.906;6.972;2023-02-18T02:06:52;101617.19;;;10.91;89.92
54194;BME280;40102;50.906;6.972;2023-02-18T02:09:19;101610.03;;;10.92;90.05
54194;BME280;40102;50.906;6.972;2023-02-18T02:15:00;101603.59;;;10.96;90.74
54194;BME280;40102;50.906;6.972;2023-02-18T02:17:40;101579.44;;;10.77;91.23
54194;BME280;40102;50.906;6.972;2023-02-18T02:23:19;101588.88;;;10.86;91.52
54194;BME280;40102;50.906;6.972;2023-02-18T02:26:08;101595.84;;;10.90;91.57
54194;BME280;40102;50.906;6.972;2023-02-18T02:32:00;101586.94;;;10.89;91.22
54194;BME280;40102;50.906;6.972;2023-02-18T02:34:49;101581.50;;;10.91;91.10
54194;BME280;40102;50.906;6.972;2023-02-18T02:41:08;101579.63;;;10.93;90.62
54194;BME280;40102;50.906;6.972;2023-02-18T02:44:01;101576.97;;;10.93;90.96
54194;BME280;40102;50.906;6.972;2023-02-18T02:46:37;101559.56;;;10.83;91.26
54194;BME280;40102;50.906;6.972;2023-02-18T02:51:51;101560.25;;;10.88;91.08
54194;BME280;40102;50.906;6.972;2023-02-18T02:54:20;101552.13;;;10.89;91.40
54194;BME280;40102;50.906;6.972;2023-02-18T02:56:46;101547.13;;;10.82;91.35
54194;BME280;40102;50.906;6.972;2023-02-18T02:59:15;101532.94;;;10.80;91.32
54194;BME280;40102;50.906;6.972;2023-02-18T03:07:28;101540.44;;;10.92;91.21
54194;BME280;40102;50.906;6.972;2023-02-18T03:13:13;101521.69;;;10.92;91.44
54194;BME280;40102;50.906;6.972;2023-02-18T03:15:49;101506.97;;;10.82;91.40
54194;BME280;40102;50.906;6.972;2023-02-18T03:18:37;101514.66;;;10.89;91.85
54194;BME280;40102;50.906;6.972;2023-02-18T03:21:16;101498.34;;;10.75;92.11
54194;BME280;40102;50.906;6.972;2023-02-18T03:26:16;101513.94;;;10.86;92.69
54194;BME280;40102;50.906;6.972;2023-02-18T03:28:44;101499.97;;;10.79;92.42
54194;BME280;40102;50.906;6.972;2023-02-18T03:31:13;101517.53;;;10.85;92.75
54194;BME280;40102;50.906;6.972;2023-02-18T03:33:54;101515.75;;;10.85;92.63
54194;BME280;40102;50.906;6.972;2023-02-18T03:36:21;101514.13;;;10.81;92.94
54194;BME280;40102;50.906;6.972;2023-02-18T03:38:53;101494.75;;;10.76;92.71
54194;BME280;40102;50.906;6.972;2023-02-18T03:41:20;101499.16;;;10.77;93.07
54194;BME280;40102;50.906;6.972;2023-02-18T03:43:54;101502.34;;;10.85;92.75
54194;BME280;40102;50.906;6.972;2023-02-18T03:46:24;101495.53;;;10.78;92.72
54194;BME280;40102;50.906;6.972;2023-02-18T03:48:50;101513.19;;;10.82;92.38
54194;BME280;40102;50.906;6.972;2023-02-18T03:51:16;101504.38;;;10.80;92.30
54194;BME280;40102;50.906;6.972;2023-02-18T03:53:41;101502.78;;;10.76;92.45
54194;BME280;40102;50.906;6.972;2023-02-18T03:56:06;101501.63;;;10.82;92.62
54194;BME280;40102;50.906;6.972;2023-02-18T03:58:32;101504.44;;;10.79;92.21
54194;BME280;40102;50.906;6.972;2023-02-18T04:00:57;101506.84;;;10.85;92.31
54194;BME280;40102;50.906;6.972;2023-02-18T04:03:22;101491.78;;;10.82;91.53
54194;BME280;40102;50.906;6.972;2023-02-18T04:05:48;101495.88;;;10.91;91.21
54194;BME280;40102;50.906;6.972;2023-02-18T04:08:13;101482.81;;;10.83;91.49
54194;BME280;40102;50.906;6.972;2023-02-18T04:10:39;101494.13;;;10.90;91.11
54194;BME280;40102;50.906;6.972;2023-02-18T04:13:04;101491.53;;;10.88;90.98
54194;BME280;40102;50.906;6.972;2023-02-18T04:15:29;101485.28;;;10.88;90.68
54194;BME280;40102;50.906;6.972;2023-02-18T04:17:55;101472.25;;;10.80;90.52
54194;BME280;40102;50.906;6.972;2023-02-18T04:20:20;101472.31;;;10.79;90.74
54194;BME280;40102;50.906;6.972;2023-02-18T04:22:49;101466.63;;;10.86;90.17
54194;BME280;40102;50.906;6.972;2023-02-18T04:25:15;101475.25;;;10.93;90.28
54194;BME280;40102;50.906;6.972;2023-02-18T04:27:40;101460.63;;;10.81;90.20
54194;BME280;40102;50.906;6.972;2023-02-18T04:30:06;101458.66;;;10.85;89.90
54194;BME280;40102;50.906;6.972;2023-02-18T04:32:32;101477.34;;;10.86;89.38
54194;BME280;40102;50.906;6.972;2023-02-18T04:34:57;101463.16;;;10.84;89.55
54194;BME280;40102;50.906;6.972;2023-02-18T04:37:23;101447.91;;;10.86;89.29
54194;BME280;40102;50.906;6.972;2023-02-18T04:39:48;101463.09;;;10.86;89.37
54194;BME280;40102;50.906;6.972;2023-02-18T04:42:13;101465.03;;;10.82;89.61
54194;BME280;40102;50.906;6.972;2023-02-18T04:44:39;101464.97;;;10.84;89.68
54194;BME280;40102;50.906;6.972;2023-02-18T04:47:05;101457.06;;;10.81;89.50
54194;BME280;40102;50.906;6.972;2023-02-18T04:49:31;101450.56;;;10.86;89.41
54194;BME280;40102;50.906;6.972;2023-02-18T04:51:57;101442.63;;;10.85;89.35
54194;BME280;40102;50.906;6.972;2023-02-18T04:54:22;101460.53;;;10.83;89.77
54194;BME280;40102;50.906;6.972;2023-02-18T04:56:47;101429.66;;;10.76;89.77
54194;BME280;40102;50.906;6.972;2023-02-18T04:59:13;101460.34;;;10.87;90.33
54194;BME280;40102;50.906;6.972;2023-02-18T05:01:39;101434.06;;;10.77;91.04
54194;BME280;40102;50.906;6.972;2023-02-18T05:04:05;101440.50;;;10.73;91.84
54194;BME280;40102;50.906;6.972;2023-02-18T05:06:30;101454.75;;;10.73;92.45
54194;BME280;40102;50.906;6.972;2023-02-18T05:08:55;101451.00;;;10.77;93.05
54194;BME280;40102;50.906;6.972;2023-02-18T05:11:21;101453.88;;;10.73;93.90
54194;BME280;40102;50.906;6.972;2023-02-18T05:13:46;101443.38;;;10.68;93.91
54194;BME280;40102;50.906;6.972;2023-02-18T05:16:11;101435.56;;;10.63;94.24
54194;BME280;40102;50.906;6.972;2023-02-18T05:18:38;101435.56;;;10.63;94.41
54194;BME280;40102;50.906;6.972;2023-02-18T05:21:03;101441.69;;;10.65;94.73
54194;BME280;40102;50.906;6.972;2023-02-18T05:23:29;101432.22;;;10.58;95.08
54194;BME280;40102;50.906;6.972;2023-02-18T05:25:54;101432.06;;;10.61;95.21
54194;BME280;40102;50.906;6.972;2023-02-18T05:28:19;101418.97;;;10.55;95.63
54194;BME280;40102;50.906;6.972;2023-02-18T05:30:45;101421.50;;;10.58;95.65
54194;BME280;40102;50.906;6.972;2023-02-18T05:33:11;101418.97;;;10.55;96.07
54194;BME280;40102;50.906;6.972;2023-02-18T05:35:37;101430.69;;;10.53;95.86
54194;BME280;40102;50.906;6.972;2023-02-18T05:38:02;101417.38;;;10.51;96.22
54194;BME280;40102;50.906;6.972;2023-02-18T05:40:27;101414.63;;;10.53;96.29
54194;BME280;40102;50.906;6.972;2023-02-18T05:42:53;101414.56;;;10.54;96.24
54194;BME280;40102;50.906;6.972;2023-02-18T05:45:18;101421.72;;;10.54;95.98
54194;BME280;40102;50.906;6.972;2023-02-18T05:47:47;101418.09;;;10.55;95.46
54194;BME280;40102;50.906;6.972;2023-02-18T05:50:12;101422.31;;;10.60;95.07
54194;BME280;40102;50.906;6.972;2023-02-18T05:52:38;101408.19;;;10.57;94.85
54194;BME280;40102;50.906;6.972;2023-02-18T05:55:03;101396.38;;;10.42;94.68
54194;BME280;40102;50.906;6.972;2023-02-18T05:57:29;101398.78;;;10.48;94.41
54194;BME280;40102;50.906;6.972;2023-02-18T05:59:55;101391.56;;;10.50;94.81
54194;BME280;40102;50.906;6.972;2023-02-18T06:02:20;101384.59;;;10.46;94.28
54194;BME280;40102;50.906;6.972;2023-02-18T06:04:45;101399.25;;;10.58;93.26
54194;BME280;40102;50.906;6.972;2023-02-18T06:07:11;101375.59;;;10.49;92.78
54194;BME280;40102;50.906;6.972;2023-02-18T06:09:36;101391.94;;;10.61;91.66
54194;BME280;40102;50.906;6.972;2023-02-18T06:12:02;101377.19;;;10.53;92.03
54194;BME280;40102;50.906;6.972;2023-02-18T06:14:27;101368.94;;;10.57;92.17
54194;BME280;40102;50.906;6.972;2023-02-18T06:16:53;101364.94;;;10.47;92.24
54194;BME280;40102;50.906;6.972;2023-02-18T06:19:18;101362.78;;;10.55;91.67
54194;BME280;40102;50.906;6.972;2023-02-18T06:21:43;101398.16;;;10.62;91.06
54194;BME280;40102;50.906;6.972;2023-02-18T06:24:09;101381.38;;;10.58;91.20
54194;BME280;40102;50.906;6.972;2023-02-18T06:26:34;101365.47;;;10.55;90.74
54194;BME280;40102;50.906;6.972;2023-02-18T06:29:00;101362.88;;;10.54;90.70
54194;BME280;40102;50.906;6.972;2023-02-18T06:31:25;101370.63;;;10.60;89.99
54194;BME280;40102;50.906;6.972;2023-02-18T06:33:51;101390.88;;;10.65;88.95
54194;BME280;40102;50.906;6.972;2023-02-18T06:36:16;101375.91;;;10.61;89.12
54194;BME280;40102;50.906;6.972;2023-02-18T06:38:43;101372.06;;;10.67;88.83
54194;BME280;40102;50.906;6.972;2023-02-18T06:41:10;101369.69;;;10.61;88.77
54194;BME280;40102;50.906;6.972;2023-02-18T06:43:36;101372.28;;;10.62;88.03
54194;BME280;40102;50.906;6.972;2023-02-18T06:46:02;101391.88;;;10.63;88.33
54194;BME280;40102;50.906;6.972;2023-02-18T06:48:27;101331.50;;;10.57;87.87
54194;BME280;40102;50.906;6.972;2023-02-18T06:50:53;101377.28;;;10.70;86.97
54194;BME280;40102;50.906;6.972;2023-02-18T06:53:19;101375.97;;;10.60;87.11
54194;BME280;40102;50.906;6.972;2023-02-18T06:55:44;101348.72;;;10.70;85.84
54194;BME280;40102;50.906;6.972;2023-02-18T06:58:11;101342.00;;;10.62;86.36
54194;BME280;40102;50.906;6.972;2023-02-18T07:00:36;101335.56;;;10.66;85.87
54194;BME280;40102;50.906;6.972;2023-02-18T07:03:03;101340.97;;;10.64;85.74
54194;BME280;40102;50.906;6.972;2023-02-18T07:05:28;101348.06;;;10.65;85.83
54194;BME280;40102;50.906;6.972;2023-02-18T07:07:55;101346.19;;;10.67;84.66
54194;BME280;40102;50.906;6.972;2023-02-18T07:10:20;101364.63;;;10.74;84.13
54194;BME280;40102;50.906;6.972;2023-02-18T07:12:46;101348.00;;;10.86;83.53
54194;BME280;40102;50.906;6.972;2023-02-18T07:15:11;101372.81;;;10.70;83.67
54194;BME280;40102;50.906;6.972;2023-02-18T07:17:39;101336.56;;;10.63;84.10
54194;BME280;40102;50.906;6.972;2023-02-18T07:20:06;101362.69;;;10.77;83.81
54194;BME280;40102;50.906;6.972;2023-02-18T07:22:31;101366.94;;;10.62;84.16
54194;BME280;40102;50.906;6.972;2023-02-18T07:24:57;101375.03;;;10.61;84.35
54194;BME280;40102;50.906;6.972;2023-02-18T07:27:26;101409.03;;;10.78;83.60
54194;BME280;40102;50.906;6.972;2023-02-18T07:29:51;101392.19;;;10.76;82.86
54194;BME280;40102;50.906;6.972;2023-02-18T07:32:18;101402.16;;;10.72;82.98
54194;BME280;40102;50.906;6.972;2023-02-18T07:34:44;101392.81;;;10.62;83.67
54194;BME280;40102;50.906;6.972;2023-02-18T07:37:10;101406.56;;;10.73;82.99
54194;BME280;40102;50.906;6.972;2023-02-18T07:39:40;101400.63;;;10.66;83.49
54194;BME280;40102;50.906;6.972;2023-02-18T07:42:10;101405.91;;;10.68;82.98
54194;BME280;40102;50.906;6.972;2023-02-18T07:44:36;101379.44;;;10.62;82.84
54194;BME280;40102;50.906;6.972;2023-02-18T07:47:03;101397.09;;;10.66;83.01
54194;BME280;40102;50.906;6.972;2023-02-18T07:49:29;101387.03;;;10.71;82.94
54194;BME280;40102;50.906;6.972;2023-02-18T07:51:54;101388.13;;;10.67;83.21
54194;BME280;40102;50.906;6.972;2023-02-18T07:54:20;101362.53;;;10.61;82.85
54194;BME280;40102;50.906;6.972;2023-02-18T07:56:45;101380.16;;;10.65;83.20
54194;BME280;40102;50.906;6.972;2023-02-18T07:59:11;101387.47;;;10.62;83.82
54194;BME280;40102;50.906;6.972;2023-02-18T08:01:37;101392.59;;;10.66;83.09
54194;BME280;40102;50.906;6.972;2023-02-18T08:04:03;101380.66;;;10.55;84.07
54194;BME280;40102;50.906;6.972;2023-02-18T08:06:32;101395.41;;;10.63;82.40
54194;BME280;40102;50.906;6.972;2023-02-18T08:09:02;101398.50;;;10.54;83.19
54194;BME280;40102;50.906;6.972;2023-02-18T08:11:27;101408.00;;;10.61;81.55
54194;BME280;40102;50.906;6.972;2023-02-18T08:13:53;101440.91;;;10.63;82.16
54194;BME280;40102;50.906;6.972;2023-02-18T08:16:20;101435.69;;;10.60;82.12
54194;BME280;40102;50.906;6.972;2023-02-18T08:18:46;101443.03;;;10.55;82.04
54194;BME280;40102;50.906;6.972;2023-02-18T08:21:13;101452.59;;;10.61;80.78
54194;BME280;40102;50.906;6.972;2023-02-18T08:23:39;101438.63;;;10.54;80.04
54194;BME280;40102;50.906;6.972;2023-02-18T08:26:04;101447.47;;;10.56;79.45
54194;BME280;40102;50.906;6.972;2023-02-18T08:28:30;101407.88;;;10.44;81.00
54194;BME280;40102;50.906;6.972;2023-02-18T08:30:55;101444.38;;;10.45;79.92
54194;BME280;40102;50.906;6.972;2023-02-18T08:33:22;101442.00;;;10.39;79.45
54194;BME280;40102;50.906;6.972;2023-02-18T08:35:50;101463.78;;;10.50;80.42
54194;BME280;40102;50.906;6.972;2023-02-18T08:38:20;101459.44;;;10.48;77.95
54194;BME280;40102;50.906;6.972;2023-02-18T08:40:46;101466.53;;;10.49;78.02
54194;BME280;40102;50.906;6.972;2023-02-18T08:43:12;101499.50;;;10.49;76.12
54194;BME280;40102;50.906;6.972;2023-02-18T08:45:38;101476.16;;;10.53;76.19
54194;BME280;40102;50.906;6.972;2023-02-18T08:48:05;101457.03;;;10.42;76.52
54194;BME280;40102;50.906;6.972;2023-02-18T08:50:31;101485.56;;;10.41;76.06
54194;BME280;40102;50.906;6.972;2023-02-18T08:52:56;101473.31;;;10.37;77.20
54194;BME280;40102;50.906;6.972;2023-02-18T08:55:25;101478.22;;;10.46;77.31
54194;BME280;40102;50.906;6.972;2023-02-18T08:57:52;101464.28;;;10.40;76.96
54194;BME280;40102;50.906;6.972;2023-02-18T09:00:17;101463.25;;;10.42;76.69
54194;BME280;40102;50.906;6.972;2023-02-18T09:02:43;101461.16;;;10.49;75.96
54194;BME280;40102;50.906;6.972;2023-02-18T09:05:08;101455.38;;;10.39;76.40
54194;BME280;40102;50.906;6.972;2023-02-18T09:07:35;101461.66;;;10.38;75.83
54194;BME280;40102;50.906;6.972;2023-02-18T09:10:01;101455.38;;;10.39;77.15
54194;BME280;40102;50.906;6.972;2023-02-18T09:12:27;101457.38;;;10.34;77.60
54194;BME280;40102;50.906;6.972;2023-02-18T09:14:52;101439.47;;;10.36;77.08
54194;BME280;40102;50.906;6.972;2023-02-18T09:17:17;101470.63;;;10.37;76.47
54194;BME280;40102;50.906;6.972;2023-02-18T09:19:43;101461.72;;;10.36;76.88
54194;BME280;40102;50.906;6.972;2023-02-18T09:22:08;101444.94;;;10.33;76.67
54194;BME280;40102;50.906;6.972;2023-02-18T09:24:37;101462.38;;;10.42;77.84
54194;BME280;40102;50.906;6.972;2023-02-18T09:27:07;101460.56;;;10.42;77.43
54194;BME280;40102;50.906;6.972;2023-02-18T09:29:33;101454.28;;;10.43;76.49
54194;BME280;40102;50.906;6.972;2023-02-18T09:32:02;101433.13;;;10.38;77.97
54194;BME280;40102;50.906;6.972;2023-02-18T09:34:30;101442.00;;;10.39;76.06
54194;BME280;40102;50.906;6.972;2023-02-18T09:36:56;101419.28;;;10.29;76.53
54194;BME280;40102;50.906;6.972;2023-02-18T09:39:22;101443.81;;;10.38;77.22
54194;BME280;40102;50.906;6.972;2023-02-18T09:41:52;101442.66;;;10.44;76.44
54194;BME280;40102;50.906;6.972;2023-02-18T09:44:23;101433.25;;;10.35;76.51
54194;BME280;40102;50.906;6.972;2023-02-18T09:47:00;101419.94;;;10.34;75.82
54194;BME280;40102;50.906;6.972;2023-02-18T09:50:03;101436.38;;;10.45;76.04
54194;BME280;40102;50.906;6.972;2023-02-18T09:52:36;101418.06;;;10.36;76.28
54194;BME280;40102;50.906;6.972;2023-02-18T09:55:18;101425.72;;;10.44;76.74
54194;BME280;40102;50.906;6.972;2023-02-18T09:57:47;101429.34;;;10.43;76.67
54194;BME280;40102;50.906;6.972;2023-02-18T10:00:35;101415.34;;;10.37;76.83
54194;BME280;40102;50.906;6.972;2023-02-18T10:03:07;101423.94;;;10.44;76.71
54194;BME280;40102;50.906;6.972;2023-02-18T10:05:51;101384.38;;;10.32;76.76
54194;BME280;40102;50.906;6.972;2023-02-18T10:08:37;101395.16;;;10.30;76.71
54194;BME280;40102;50.906;6.972;2023-02-18T10:11:11;101378.75;;;10.38;77.65
54194;BME280;40102;50.906;6.972;2023-02-18T10:13:41;101384.75;;;10.43;77.10
54194;BME280;40102;50.906;6.972;2023-02-18T10:16:08;101393.63;;;10.44;76.29
54194;BME280;40102;50.906;6.972;2023-02-18T10:18:42;101417.66;;;10.45;76.77
54194;BME280;40102;50.906;6.972;2023-02-18T10:21:13;101408.28;;;10.55;76.40
54194;BME280;40102;50.906;6.972;2023-02-18T10:23:42;101394.97;;;10.54;76.55
54194;BME280;40102;50.906;6.972;2023-02-18T10:26:15;101394.91;;;10.55;76.96
54194;BME280;40102;50.906;6.972;2023-02-18T10:28:41;101399.78;;;10.46;77.11
54194;BME280;40102;50.906;6.972;2023-02-18T10:31:09;101374.66;;;10.50;77.46
54194;BME280;40102;50.906;6.972;2023-02-18T10:33:41;101374.06;;;10.43;77.36
54194;BME280;40102;50.906;6.972;2023-02-18T10:36:34;101405.66;;;10.54;77.88
54194;BME280;40102;50.906;6.972;2023-02-18T10:49:52;101387.94;;;10.51;78.69
54194;BME280;40102;50.906;6.972;2023-02-18T10:52:19;101398.72;;;10.50;78.38
54194;BME280;40102;50.906;6.972;2023-02-18T10:54:58;101410.00;;;10.56;78.31
54194;BME280;40102;50.906;6.972;2023-02-18T10:57:24;101381.00;;;10.47;78.68
54194;BME280;40102;50.906;6.972;2023-02-18T11:02:25;101390.91;;;10.45;79.50
54194;BME280;40102;50.906;6.972;2023-02-18T11:04:51;101381.94;;;10.46;80.02
54194;BME280;40102;50.906;6.972;2023-02-18T11:07:25;101406.94;;;10.45;80.74
54194;BME280;40102;50.906;6.972;2023-02-18T11:09:56;101380.56;;;10.37;82.57
54194;BME280;40102;50.906;6.972;2023-02-18T11:12:25;101390.81;;;10.28;84.00
54194;BME280;40102;50.906;6.972;2023-02-18T11:15:15;101406.84;;;10.28;85.06
54194;BME280;40102;50.906;6.972;2023-02-18T11:17:46;101418.28;;;10.31;85.11
54194;BME280;40102;50.906;6.972;2023-02-18T11:22:56;101422.16;;;10.24;85.70
54194;BME280;40102;50.906;6.972;2023-02-18T11:25:27;101427.31;;;10.29;86.15
54194;BME280;40102;50.906;6.972;2023-02-18T11:27:59;101381.41;;;10.18;86.10
54194;BME280;40102;50.906;6.972;2023-02-18T11:30:32;101401.75;;;10.22;86.39
54194;BME280;40102;50.906;6.972;2023-02-18T11:33:06;101404.38;;;10.23;86.60
54194;BME280;40102;50.906;6.972;2023-02-18T11:35:33;101399.19;;;10.19;87.09
54194;BME280;40102;50.906;6.972;2023-02-18T11:38:01;101405.03;;;10.28;87.23
54194;BME280;40102;50.906;6.972;2023-02-18T11:40:30;101397.59;;;10.15;87.76
54194;BME280;40102;50.906;6.972;2023-02-18T11:43:15;101426.06;;;10.16;88.80
54194;BME280;40102;50.906;6.972;2023-02-18T11:45:41;101425.94;;;10.19;88.74
54194;BME280;40102;50.906;6.972;2023-02-18T11:50:38;101407.81;;;10.05;90.17
54194;BME280;40102;50.906;6.972;2023-02-18T11:53:25;101414.69;;;10.11;90.00
54194;BME280;40102;50.906;6.972;2023-02-18T11:55:56;101398.19;;;10.01;90.82
54194;BME280;40102;50.906;6.972;2023-02-18T11:58:22;101399.78;;;10.05;90.83
54194;BME280;40102;50.906;6.972;2023-02-18T12:00:49;101399.91;;;10.02;91.35
54194;BME280;40102;50.906;6.972;2023-02-18T12:03:32;101420.03;;;10.11;91.25
54194;BME280;40102;50.906;6.972;2023-02-18T12:06:04;101409.22;;;10.14;91.44
54194;BME280;40102;50.906;6.972;2023-02-18T12:08:34;101406.53;;;10.14;91.74
54194;BME280;40102;50.906;6.972;2023-02-18T12:11:14;101399.09;;;10.00;92.30
54194;BME280;40102;50.906;6.972;2023-02-18T12:13:55;101408.94;;;9.99;92.52
54194;BME280;40102;50.906;6.972;2023-02-18T12:32:28;101420.22;;;10.06;92.90
54194;BME280;40102;50.906;6.972;2023-02-18T12:44:00;101415.69;;;10.08;92.13
54194;BME280;40102;50.906;6.972;2023-02-18T12:46:35;101420.63;;;9.97;92.69
54194;BME280;40102;50.906;6.972;2023-02-18T12:54:39;101414.09;;;10.04;92.05
54194;BME280;40102;50.906;6.972;2023-02-18T12:57:26;101419.16;;;10.10;91.54
54194;BME280;40102;50.906;6.972;2023-02-18T13:00:30;101408.34;;;10.13;91.18
54194;BME280;40102;50.906;6.972;2023-02-18T13:11:35;101394.25;;;10.10;92.46
54194;BME280;40102;50.906;6.972;2023-02-18T13:16:30;101392.84;;;10.01;92.85
54194;BME280;40102;50.906;6.972;2023-02-18T13:19:22;101397.72;;;10.12;92.73
54194;BME280;40102;50.906;6.972;2023-02-18T13:21:53;101399.84;;;10.03;92.56
54194;BME280;40102;50.906;6.972;2023-02-18T13:24:32;101426.94;;;10.16;91.99
54194;BME280;40102;50.906;6.972;2023-02-18T13:27:21;101404.75;;;10.14;91.78
54194;BME280;40102;50.906;6.972;2023-02-18T13:32:32;101401.19;;;10.14;92.08
54194;BME280;40102;50.906;6.972;2023-02-18T13:37:54;101393.91;;;10.17;92.27
54194;BME280;40102;50.906;6.972;2023-02-18T13:40:27;101411.81;;;10.15;92.59
54194;BME280;40102;50.906;6.972;2023-02-18T13:48:45;101420.41;;;10.23;93.09
54194;BME280;40102;50.906;6.972;2023-02-18T13:51:15;101402.81;;;10.18;92.88
54194;BME280;40102;50.906;6.972;2023-02-18T13:53:43;101415.38;;;10.16;93.22
54194;BME280;40102;50.906;6.972;2023-02-18T13:56:20;101402.94;;;10.15;93.25
54194;BME280;40102;50.906;6.972;2023-02-18T13:58:51;101402.25;;;10.10;93.63
54194;BME280;40102;50.906;6.972;2023-02-18T14:01:22;101424.97;;;10.21;93.54
54194;BME280;40102;50.906;6.972;2023-02-18T14:09:53;101389.97;;;10.05;94.81
54194;BME280;40102;50.906;6.972;2023-02-18T14:12:38;101407.41;;;10.14;94.69
54194;BME280;40102;50.906;6.972;2023-02-18T14:17:55;101396.84;;;10.11;94.68
54194;BME280;40102;50.906;6.972;2023-02-18T14:23:53;101394.78;;;10.18;94.29
54194;BME280;40102;50.906;6.972;2023-02-18T14:26:49;101404.66;;;10.16;94.41
54194;BME280;40102;50.906;6.972;2023-02-18T14:29:25;101391.56;;;10.10;94.17
54194;BME280;40102;50.906;6.972;2023-02-18T14:31:55;101395.19;;;10.09;94.17
54194;BME280;40102;50.906;6.972;2023-02-18T14:39:56;101375.34;;;10.14;93.49
54194;BME280;40102;50.906;6.972;2023-02-18T14:42:54;101402.56;;;10.24;93.34
54194;BME280;40102;50.906;6.972;2023-02-18T14:45:41;101392.69;;;10.26;92.61
54194;BME280;40102;50.906;6.972;2023-02-18T14:48:23;101387.41;;;10.24;92.49
54194;BME280;40102;50.906;6.972;2023-02-18T14:50:54;101388.69;;;10.14;92.62
54194;BME280;40102;50.906;6.972;2023-02-18T14:53:23;101373.59;;;10.13;92.30
54194;BME280;40102;50.906;6.972;2023-02-18T14:55:52;101391.16;;;10.19;92.33
54194;BME280;40102;50.906;6.972;2023-02-18T14:58:28;101383.13;;;10.20;92.29